createdAt,value
2018-06-23T00:00:50.920Z,14.37
2018-06-23T00:03:19.732Z,14.36
2018-06-23T00:05:48.452Z,15.00
2018-06-23T00:08:17.104Z,14.54
2018-06-23T00:10:45.870Z,14.46
2018-06-23T00:13:14.459Z,14.40
2018-06-23T00:15:43.183Z,14.35
2018-06-23T00:18:11.849Z,14.36
2018-06-23T00:20:40.580Z,14.99
2018-06-23T00:23:09.248Z,14.51
2018-06-23T00:25:38.027Z,14.39
2018-06-23T00:28:06.693Z,14.34
2018-06-23T00:30:35.443Z,14.32
2018-06-23T00:33:04.099Z,14.27
2018-06-23T00:35:32.815Z,14.24
2018-06-23T00:38:01.454Z,14.24
2018-06-23T00:40:30.174Z,14.23
2018-06-23T00:42:58.832Z,14.23
2018-06-23T00:45:27.597Z,14.23
2018-06-23T00:47:56.312Z,14.21
2018-06-23T00:50:25.026Z,14.23
2018-06-23T00:52:53.697Z,14.21
2018-06-23T00:55:22.377Z,14.89
2018-06-23T00:57:51.047Z,14.42
2018-06-23T01:00:19.769Z,14.35
2018-06-23T01:02:48.460Z,14.31
2018-06-23T01:05:17.198Z,14.28
2018-06-23T01:07:46.226Z,14.92
2018-06-23T01:10:15.088Z,15.11
2018-06-23T01:12:43.750Z,15.23
2018-06-23T01:15:12.501Z,14.62
2018-06-23T01:17:41.165Z,14.48
2018-06-23T01:20:09.935Z,15.07
2018-06-23T01:22:38.781Z,15.20
2018-06-23T01:25:07.473Z,14.66
2018-06-23T01:27:36.128Z,14.48
2018-06-23T01:30:04.866Z,14.41
2018-06-23T01:32:36.464Z,14.34
2018-06-23T01:35:05.142Z,14.97
2018-06-23T01:37:33.821Z,14.48
2018-06-23T01:40:02.525Z,14.34
2018-06-23T01:42:31.241Z,14.26
2018-06-23T01:44:59.893Z,14.18
2018-06-23T01:47:28.691Z,14.16
2018-06-23T01:49:57.299Z,14.10
2018-06-23T01:52:25.979Z,14.06
2018-06-23T01:54:54.623Z,14.02
2018-06-23T01:57:23.571Z,14.01
2018-06-23T01:59:52.196Z,13.99
2018-06-23T02:02:23.641Z,13.98
2018-06-23T02:04:52.341Z,13.94
2018-06-23T02:07:21.049Z,14.59
2018-06-23T02:09:49.750Z,14.79
2018-06-23T02:12:18.429Z,14.88
2018-06-23T02:14:47.095Z,14.95
2018-06-23T02:17:33.994Z,15.02
2018-06-23T02:20:20.472Z,14.35
2018-06-23T02:22:54.992Z,14.16
2018-06-23T02:25:26.338Z,14.09
2018-06-23T02:27:55.276Z,14.01
2018-06-23T02:30:26.725Z,13.98
2018-06-23T02:32:55.448Z,13.92
2018-06-23T02:35:24.134Z,13.89
2018-06-23T02:37:52.823Z,13.87
2018-06-23T02:40:21.566Z,13.82
2018-06-23T02:42:50.352Z,13.82
2018-06-23T02:45:19.322Z,14.50
2018-06-23T02:47:48.014Z,14.00
2018-06-23T02:50:16.665Z,13.91
2018-06-23T02:52:45.360Z,13.81
2018-06-23T02:55:14.060Z,13.73
2018-06-23T02:57:42.756Z,13.67
2018-06-23T03:00:11.447Z,13.58
2018-06-23T03:02:40.134Z,13.56
2018-06-23T03:05:08.968Z,13.52
2018-06-23T03:07:37.735Z,13.46
2018-06-23T03:10:06.387Z,13.43
2018-06-23T03:12:40.274Z,14.10
2018-06-23T03:15:08.922Z,13.56
2018-06-23T03:17:37.729Z,13.46
2018-06-23T03:20:06.428Z,13.38
2018-06-23T03:22:35.306Z,13.31
2018-06-23T03:25:04.037Z,13.29
2018-06-23T03:27:32.749Z,13.23
2018-06-23T03:30:01.427Z,13.23
2018-06-23T03:32:30.125Z,13.17
2018-06-23T03:34:58.822Z,13.11
2018-06-23T03:37:27.516Z,13.06
2018-06-23T03:39:56.180Z,13.02
2018-06-23T03:42:24.855Z,12.95
2018-06-23T03:44:53.577Z,12.94
2018-06-23T03:47:22.391Z,12.95
2018-06-23T03:49:51.078Z,12.93
2018-06-23T03:52:19.801Z,12.96
2018-06-23T03:54:48.501Z,13.00
2018-06-23T03:57:17.244Z,13.05
2018-06-23T03:59:45.877Z,13.88
2018-06-23T04:02:14.576Z,13.47
2018-06-23T04:04:43.257Z,13.48
2018-06-23T04:07:11.945Z,13.55
2018-06-23T04:09:40.593Z,13.63
2018-06-23T04:12:09.293Z,13.69
2018-06-23T04:14:37.947Z,13.77
2018-06-23T04:17:06.669Z,13.85
2018-06-23T04:19:35.407Z,13.89
2018-06-23T04:22:04.158Z,13.96
2018-06-23T04:24:32.818Z,13.97
2018-06-23T04:27:01.564Z,14.00
2018-06-23T04:29:30.213Z,14.08
2018-06-23T04:31:58.919Z,14.12
2018-06-23T04:34:27.577Z,14.17
2018-06-23T04:36:56.294Z,14.24
2018-06-23T04:39:24.976Z,15.15
2018-06-23T04:41:53.712Z,14.66
2018-06-23T04:44:22.355Z,14.62
2018-06-23T04:46:51.030Z,14.58
2018-06-23T04:49:19.789Z,14.57
2018-06-23T04:51:48.493Z,15.39
2018-06-23T04:54:17.152Z,14.74
2018-06-23T04:56:45.851Z,14.62
2018-06-23T04:59:14.518Z,14.59
2018-06-23T05:01:43.242Z,14.65
2018-06-23T05:04:11.882Z,14.70
2018-06-23T05:06:40.564Z,14.70
2018-06-23T05:09:09.295Z,14.70
2018-06-23T05:11:38.003Z,14.71
2018-06-23T05:14:06.700Z,15.63
2018-06-23T05:16:35.398Z,15.06
2018-06-23T05:19:04.151Z,14.92
2018-06-23T05:21:32.802Z,14.87
2018-06-23T05:24:01.899Z,14.89
2018-06-23T05:26:30.667Z,14.93
2018-06-23T05:28:59.363Z,14.97
2018-06-23T05:31:28.023Z,14.98
2018-06-23T05:33:56.737Z,15.05
2018-06-23T05:36:25.405Z,15.03
2018-06-23T05:38:54.150Z,15.03
2018-06-23T05:41:24.917Z,15.06
2018-06-23T05:43:53.619Z,15.04
2018-06-23T05:46:22.416Z,15.89
2018-06-23T05:48:51.160Z,15.15
2018-06-23T05:51:19.851Z,15.00
2018-06-23T05:53:48.569Z,14.94
2018-06-23T05:56:17.247Z,14.92
2018-06-23T05:58:45.968Z,14.87
2018-06-23T06:01:14.712Z,14.77
2018-06-23T06:03:43.405Z,14.78
2018-06-23T06:06:12.585Z,14.77
2018-06-23T06:08:41.315Z,14.78
2018-06-23T06:11:09.963Z,14.76
2018-06-23T06:13:38.779Z,14.76
2018-06-23T06:16:07.472Z,14.75
2018-06-23T06:18:36.118Z,14.74
2018-06-23T06:21:07.505Z,14.77
2018-06-23T06:23:36.171Z,14.75
2018-06-23T06:26:04.855Z,14.72
2018-06-23T06:28:33.563Z,14.66
2018-06-23T06:31:02.227Z,14.57
2018-06-23T06:33:30.950Z,14.51
2018-06-23T06:35:59.588Z,14.42
2018-06-23T06:38:28.323Z,14.31
2018-06-23T06:40:56.975Z,14.28
2018-06-23T06:43:25.853Z,15.03
2018-06-23T06:45:54.476Z,14.43
2018-06-23T06:48:23.601Z,14.17
2018-06-23T06:50:52.449Z,13.99
2018-06-23T06:53:21.509Z,13.92
2018-06-23T06:55:50.210Z,13.90
2018-06-23T06:58:19.182Z,13.79
2018-06-23T07:00:49.453Z,14.49
2018-06-23T07:03:18.599Z,13.91
2018-06-23T07:05:47.260Z,13.83
2018-06-23T07:08:16.240Z,13.75
2018-06-23T07:10:44.916Z,13.67
2018-06-23T07:13:14.051Z,13.64
2018-06-23T07:15:42.743Z,13.65
2018-06-23T07:18:13.074Z,13.64
2018-06-23T07:20:42.111Z,14.43
2018-06-23T07:23:10.802Z,14.67
2018-06-23T07:25:39.584Z,14.74
2018-06-23T07:28:08.823Z,14.03
2018-06-23T07:30:37.512Z,14.71
2018-06-23T07:33:10.399Z,14.18
2018-06-23T07:35:39.081Z,14.04
2018-06-23T07:38:07.930Z,14.78
2018-06-23T07:40:36.720Z,14.22
2018-06-23T07:43:05.368Z,14.16
2018-06-23T07:45:34.020Z,14.94
2018-06-23T07:48:04.952Z,15.08
2018-06-23T07:50:33.198Z,14.37
2018-06-23T07:53:01.884Z,14.17
2018-06-23T07:55:30.610Z,13.90
2018-06-23T07:57:59.643Z,14.63
2018-06-23T08:00:28.357Z,14.01
2018-06-23T08:02:56.981Z,13.88
2018-06-23T08:05:25.868Z,13.88
2018-06-23T08:07:54.575Z,13.90
2018-06-23T08:10:23.328Z,14.79
2018-06-23T08:12:52.008Z,14.20
2018-06-23T08:15:20.763Z,14.07
2018-06-23T08:17:49.455Z,14.03
2018-06-23T08:20:18.209Z,14.00
2018-06-23T08:22:46.891Z,13.95
2018-06-23T08:25:15.631Z,13.90
2018-06-23T08:27:44.504Z,13.97
2018-06-23T08:30:13.539Z,13.96
2018-06-23T08:32:57.949Z,13.99
2018-06-23T08:35:26.670Z,14.08
2018-06-23T08:37:55.388Z,14.10
2018-06-23T08:40:24.411Z,14.16
2018-06-23T08:42:53.165Z,14.19
2018-06-23T08:45:22.060Z,14.23
2018-06-23T08:47:50.671Z,14.24
2018-06-23T08:50:19.449Z,14.25
2018-06-23T08:52:48.488Z,14.16
2018-06-23T08:55:17.330Z,14.98
2018-06-23T08:57:46.034Z,14.35
2018-06-23T09:00:14.747Z,14.21
2018-06-23T09:02:43.479Z,14.16
2018-06-23T09:05:12.332Z,15.06
2018-06-23T09:07:41.116Z,14.55
2018-06-23T09:10:09.850Z,14.54
2018-06-23T09:12:38.536Z,14.68
2018-06-23T09:15:07.243Z,14.89
2018-06-23T09:17:36.007Z,15.00
2018-06-23T09:20:04.877Z,15.10
2018-06-23T09:22:33.668Z,15.16
2018-06-23T09:25:02.474Z,15.16
2018-06-23T09:27:31.534Z,15.21
2018-06-23T09:30:00.347Z,15.29
2018-06-23T09:32:29.180Z,15.39
2018-06-23T09:34:58.189Z,15.53
2018-06-23T09:37:26.916Z,15.63
2018-06-23T09:39:58.027Z,15.70
2018-06-23T09:42:27.019Z,15.77
2018-06-23T09:44:55.868Z,15.89
2018-06-23T09:47:24.615Z,15.92
2018-06-23T09:52:41.491Z,15.88
2018-06-23T09:55:10.676Z,15.86
2018-06-23T09:57:40.069Z,15.93
2018-06-23T10:00:09.298Z,16.02
2018-06-23T10:02:38.521Z,16.08
2018-06-23T10:05:11.877Z,16.17
2018-06-23T10:07:41.135Z,16.25
2018-06-23T10:10:11.336Z,16.31
2018-06-23T10:12:43.007Z,16.23
2018-06-23T10:15:12.078Z,16.10
2018-06-23T10:17:41.432Z,16.16
2018-06-23T10:20:10.232Z,16.21
2018-06-23T10:22:39.528Z,16.23
2018-06-23T10:25:12.066Z,16.32
2018-06-23T10:27:41.076Z,16.34
2018-06-23T10:30:10.374Z,16.35
2018-06-23T10:32:39.115Z,16.44
2018-06-23T10:35:08.445Z,16.55
2018-06-23T10:37:37.509Z,16.78
2018-06-23T10:40:06.946Z,16.91
2018-06-23T10:42:35.828Z,18.25
2018-06-23T10:45:04.770Z,18.62
2018-06-23T10:47:33.778Z,18.02
2018-06-23T10:50:03.595Z,18.07
2018-06-23T10:52:32.448Z,18.18
2018-06-23T10:57:52.123Z,18.61
2018-06-23T11:00:24.892Z,18.70
2018-06-23T11:02:54.908Z,18.52
2018-06-23T11:05:25.938Z,18.30
2018-06-23T11:07:57.868Z,19.36
2018-06-23T11:10:26.940Z,18.68
2018-06-23T11:12:56.085Z,19.87
2018-06-23T11:15:25.437Z,19.32
2018-06-23T11:17:57.675Z,19.36
2018-06-23T11:20:27.064Z,19.38
2018-06-23T11:22:56.609Z,20.70
2018-06-23T11:25:26.824Z,20.01
2018-06-23T11:27:57.413Z,20.17
2018-06-23T11:30:26.434Z,20.46
2018-06-23T11:32:55.556Z,21.96
2018-06-23T11:35:28.065Z,21.15
2018-06-23T11:37:57.081Z,22.24
2018-06-23T11:40:25.964Z,22.20
2018-06-23T11:42:54.656Z,22.24
2018-06-23T11:45:23.415Z,21.01
2018-06-23T11:47:52.130Z,20.66
2018-06-23T11:50:20.834Z,20.55
2018-06-23T11:52:49.638Z,22.19
2018-06-23T11:55:21.232Z,21.53
2018-06-23T11:57:50.310Z,21.13
2018-06-23T12:00:22.193Z,21.83
2018-06-23T12:02:51.110Z,20.29
2018-06-23T12:05:20.242Z,19.75
2018-06-23T12:07:49.284Z,19.17
2018-06-23T12:10:18.194Z,18.86
2018-06-23T12:12:50.507Z,19.69
2018-06-23T12:15:21.717Z,18.68
2018-06-23T12:17:51.047Z,18.43
2018-06-23T12:20:19.887Z,18.31
2018-06-23T12:22:59.617Z,18.22
2018-06-23T12:25:28.391Z,18.10
2018-06-23T12:27:57.174Z,18.06
2018-06-23T12:30:25.873Z,18.05
2018-06-23T12:32:54.554Z,18.08
2018-06-23T12:35:23.272Z,18.16
2018-06-23T12:37:51.933Z,18.36
2018-06-23T12:40:20.601Z,18.54
2018-06-23T12:42:49.280Z,18.71
2018-06-23T12:45:18.182Z,18.77
2018-06-23T12:47:46.877Z,18.67
2018-06-23T12:50:15.553Z,18.43
2018-06-23T12:52:44.292Z,18.21
2018-06-23T12:55:13.239Z,17.97
2018-06-23T12:57:41.968Z,18.94
2018-06-23T13:00:10.611Z,18.11
2018-06-23T13:02:39.303Z,17.92
2018-06-23T13:05:08.300Z,17.88
2018-06-23T13:07:39.057Z,17.80
2018-06-23T13:10:08.028Z,17.74
2018-06-23T13:12:37.133Z,17.74
2018-06-23T13:15:06.167Z,18.64
2018-06-23T13:17:35.252Z,17.94
2018-06-23T13:20:03.922Z,17.82
2018-06-23T13:22:33.141Z,18.71
2018-06-23T13:25:03.091Z,18.07
2018-06-23T13:27:32.186Z,18.03
2018-06-23T13:30:01.253Z,18.09
2018-06-23T13:32:30.576Z,18.12
2018-06-23T13:34:59.348Z,18.04
2018-06-23T13:37:28.639Z,17.82
2018-06-23T13:40:00.933Z,17.65
2018-06-23T13:42:30.031Z,17.55
2018-06-23T13:44:58.977Z,17.52
2018-06-23T13:47:31.441Z,17.43
2018-06-23T13:50:00.428Z,17.47
2018-06-23T13:52:31.905Z,17.54
2018-06-23T13:55:00.983Z,17.49
2018-06-23T13:57:31.016Z,17.54
2018-06-23T13:59:59.861Z,17.60
2018-06-23T14:02:28.980Z,18.64
2018-06-23T14:04:57.848Z,18.95
2018-06-23T14:07:26.919Z,18.27
2018-06-23T14:09:55.751Z,18.28
2018-06-23T14:12:24.445Z,18.37
2018-06-23T14:14:53.238Z,19.45
2018-06-23T14:17:21.958Z,18.69
2018-06-23T14:19:50.741Z,18.57
2018-06-23T14:22:19.446Z,18.64
2018-06-23T14:24:48.134Z,18.66
2018-06-23T14:27:16.829Z,19.88
2018-06-23T14:29:45.523Z,19.17
2018-06-23T14:32:14.227Z,19.09
2018-06-23T14:34:42.893Z,18.95
2018-06-23T14:37:11.610Z,18.81
2018-06-23T14:39:40.373Z,18.74
2018-06-23T14:42:09.469Z,18.63
2018-06-23T14:44:38.562Z,18.58
2018-06-23T14:47:07.783Z,18.51
2018-06-23T14:49:37.017Z,18.42
2018-06-23T14:52:06.530Z,18.23
2018-06-23T14:54:35.194Z,19.08
2018-06-23T14:57:03.892Z,18.19
2018-06-23T14:59:32.693Z,17.95
2018-06-23T15:02:01.894Z,17.86
2018-06-23T15:04:31.313Z,17.71
2018-06-23T15:07:00.052Z,17.62
2018-06-23T15:09:38.030Z,17.64
2018-06-23T15:12:44.771Z,17.67
2018-06-23T15:15:13.941Z,17.67
2018-06-23T15:17:43.181Z,17.69
2018-06-23T15:20:12.183Z,17.70
2018-06-23T15:22:40.881Z,17.64
2018-06-23T15:25:10.333Z,17.67
2018-06-23T15:27:39.082Z,17.65
2018-06-23T15:30:09.502Z,17.62
2018-06-23T15:32:38.228Z,17.57
2018-06-23T15:35:06.948Z,18.54
2018-06-23T15:37:35.786Z,17.91
2018-06-23T15:40:04.490Z,17.85
2018-06-23T15:42:33.177Z,17.72
2018-06-23T15:45:01.969Z,17.66
2018-06-23T15:47:31.164Z,18.49
2018-06-23T15:50:01.269Z,17.79
2018-06-23T15:52:30.071Z,18.53
2018-06-23T15:54:59.220Z,18.72
2018-06-23T15:57:28.374Z,18.01
2018-06-23T15:59:57.419Z,17.87
2018-06-23T16:02:26.181Z,17.76
2018-06-23T16:04:54.926Z,17.77
2018-06-23T16:07:23.618Z,17.80
2018-06-23T16:09:52.315Z,18.69
2018-06-23T16:12:21.047Z,17.99
2018-06-23T16:14:52.177Z,17.80
2018-06-23T16:17:20.852Z,17.70
2018-06-23T16:19:49.519Z,18.60
2018-06-23T16:22:18.239Z,17.94
2018-06-23T16:24:46.968Z,17.81
2018-06-23T16:27:15.776Z,18.69
2018-06-23T16:29:44.426Z,17.85
2018-06-23T16:32:13.140Z,17.68
2018-06-23T16:34:42.420Z,18.49
2018-06-23T16:37:11.036Z,17.80
2018-06-23T16:39:44.109Z,17.62
2018-06-23T16:42:12.810Z,17.54
2018-06-23T16:44:41.469Z,18.44
2018-06-23T16:47:10.108Z,18.57
2018-06-23T16:49:38.792Z,17.84
2018-06-23T16:52:07.472Z,17.59
2018-06-23T16:54:36.191Z,18.43
2018-06-23T16:57:04.860Z,17.62
2018-06-23T16:59:33.539Z,17.40
2018-06-23T17:02:02.169Z,18.18
2018-06-23T17:04:30.865Z,17.43
2018-06-23T17:06:59.527Z,18.13
2018-06-23T17:09:28.234Z,18.14
2018-06-23T17:11:56.869Z,17.36
2018-06-23T17:14:25.588Z,17.07
2018-06-23T17:16:54.236Z,16.93
2018-06-23T17:19:23.097Z,16.81
2018-06-23T17:21:51.835Z,16.70
2018-06-23T17:24:20.539Z,16.70
2018-06-23T17:26:49.474Z,16.65
2018-06-23T17:29:18.250Z,16.64
2018-06-23T17:31:47.030Z,16.57
2018-06-23T17:34:15.765Z,16.50
2018-06-23T17:36:44.488Z,17.26
2018-06-23T17:39:13.213Z,16.65
2018-06-23T17:41:41.896Z,16.50
2018-06-23T17:44:10.617Z,17.29
2018-06-23T17:46:39.304Z,16.68
2018-06-23T17:49:07.974Z,16.58
2018-06-23T17:51:36.711Z,16.46
2018-06-23T17:54:05.379Z,16.43
2018-06-23T17:56:34.092Z,16.36
2018-06-23T17:59:02.796Z,17.14
2018-06-23T18:01:31.423Z,16.57
2018-06-23T18:04:00.104Z,16.42
2018-06-23T18:06:28.893Z,16.34
2018-06-23T18:09:00.026Z,16.28
2018-06-23T18:11:28.756Z,16.20
2018-06-23T18:13:58.840Z,16.15
2018-06-23T18:16:27.494Z,16.10
2018-06-23T18:18:56.196Z,16.03
2018-06-23T18:21:24.857Z,16.05
2018-06-23T18:23:53.540Z,16.77
2018-06-23T18:26:22.171Z,16.23
2018-06-23T18:28:50.869Z,16.14
2018-06-23T18:31:19.548Z,16.00
2018-06-23T18:33:48.267Z,15.93
2018-06-23T18:36:16.934Z,15.86
2018-06-23T18:38:45.654Z,15.81
2018-06-23T18:41:14.308Z,15.73
2018-06-23T18:43:43.151Z,15.69
2018-06-23T18:46:11.758Z,15.68
2018-06-23T18:48:40.468Z,15.65
2018-06-23T18:51:09.160Z,16.32
2018-06-23T18:53:37.915Z,15.83
2018-06-23T18:56:06.557Z,15.70
2018-06-23T18:58:35.307Z,15.63
2018-06-23T19:01:03.940Z,15.62
2018-06-23T19:03:32.700Z,15.57
2018-06-23T19:06:01.406Z,15.56
2018-06-23T19:08:30.081Z,15.53
2018-06-23T19:10:58.744Z,15.51
2018-06-23T19:13:27.467Z,15.53
2018-06-23T19:15:56.104Z,15.50
2018-06-23T19:18:24.781Z,15.47
2018-06-23T19:20:53.454Z,15.42
2018-06-23T19:23:22.125Z,16.12
2018-06-23T19:25:50.899Z,15.62
2018-06-23T19:28:19.542Z,15.48
2018-06-23T19:30:54.280Z,15.44
2018-06-23T19:33:23.379Z,15.41
2018-06-23T19:35:52.077Z,15.38
2018-06-23T19:38:20.720Z,15.37
2018-06-23T19:40:49.402Z,15.37
2018-06-23T19:43:18.100Z,15.34
2018-06-23T19:45:46.879Z,15.36
2018-06-23T19:48:15.545Z,15.32
2018-06-23T19:50:44.264Z,15.33
2018-06-23T19:53:12.942Z,15.33
2018-06-23T19:55:41.681Z,16.00
2018-06-23T19:58:10.367Z,15.54
2018-06-23T20:00:39.101Z,15.46
2018-06-23T20:03:07.902Z,16.10
2018-06-23T20:05:36.602Z,15.62
2018-06-23T20:08:05.423Z,15.51
2018-06-23T20:10:34.143Z,15.45
2018-06-23T20:13:02.809Z,15.39
2018-06-23T20:15:31.504Z,16.06
2018-06-23T20:18:00.171Z,15.56
2018-06-23T20:20:28.868Z,15.44
2018-06-23T20:22:57.531Z,15.36
2018-06-23T20:25:26.232Z,15.31
2018-06-23T20:27:54.954Z,15.91
2018-06-23T20:30:23.687Z,15.38
2018-06-23T20:32:52.380Z,15.26
2018-06-23T20:35:21.151Z,15.20
2018-06-23T20:37:49.808Z,15.13
2018-06-23T20:40:18.479Z,15.07
2018-06-23T20:42:47.151Z,15.73
2018-06-23T20:45:15.876Z,15.22
2018-06-23T20:47:44.552Z,15.11
2018-06-23T20:50:13.259Z,15.04
2018-06-23T20:52:44.399Z,15.02
2018-06-23T20:55:13.089Z,14.99
2018-06-23T20:57:41.782Z,14.96
2018-06-23T21:00:10.462Z,14.95
2018-06-23T21:02:39.123Z,14.93
2018-06-23T21:05:07.840Z,14.92
2018-06-23T21:07:36.500Z,14.90
2018-06-23T21:10:05.262Z,14.92
2018-06-23T21:12:33.954Z,14.92
2018-06-23T21:15:02.694Z,14.93
2018-06-23T21:17:31.452Z,14.91
2018-06-23T21:20:00.192Z,15.58
2018-06-23T21:22:28.989Z,15.17
2018-06-23T21:24:57.733Z,15.06
2018-06-23T21:27:26.409Z,15.02
2018-06-23T21:29:55.131Z,14.97
2018-06-23T21:32:23.796Z,14.95
2018-06-23T21:34:52.519Z,14.93
2018-06-23T21:37:21.178Z,14.94
2018-06-23T21:39:49.868Z,14.94
2018-06-23T21:42:18.563Z,14.88
2018-06-23T21:44:47.238Z,14.86
2018-06-23T21:47:15.933Z,14.84
2018-06-23T21:49:44.636Z,15.52
2018-06-23T21:52:13.305Z,15.69
2018-06-23T21:54:42.018Z,15.14
2018-06-23T21:57:10.678Z,15.69
2018-06-23T21:59:39.370Z,15.82
2018-06-23T22:02:08.007Z,15.25
2018-06-23T22:04:36.660Z,15.09
2018-06-23T22:07:05.370Z,14.98
2018-06-23T22:09:34.069Z,14.91
2018-06-23T22:12:02.770Z,14.88
2018-06-23T22:14:31.479Z,14.85
2018-06-23T22:17:00.163Z,15.53
2018-06-23T22:19:28.858Z,15.72
2018-06-23T22:21:57.548Z,15.16
2018-06-23T22:24:26.201Z,15.71
2018-06-23T22:26:54.892Z,15.15
2018-06-23T22:29:23.553Z,15.00
2018-06-23T22:31:52.319Z,14.94
2018-06-23T22:34:20.975Z,15.61
2018-06-23T22:36:49.705Z,15.09
2018-06-23T22:39:18.354Z,14.98
2018-06-23T22:41:47.085Z,14.91
2018-06-23T22:44:15.734Z,15.58
2018-06-23T22:46:44.389Z,15.05
2018-06-23T22:49:13.045Z,14.95
2018-06-23T22:51:41.706Z,14.85
2018-06-23T22:54:10.363Z,14.78
2018-06-23T22:56:39.053Z,15.46
2018-06-23T22:59:07.704Z,14.98
2018-06-23T23:01:36.594Z,14.84
2018-06-23T23:04:05.384Z,14.79
2018-06-23T23:06:34.213Z,14.77
2018-06-23T23:09:03.093Z,14.75
2018-06-23T23:11:31.714Z,14.71
2018-06-23T23:14:00.355Z,14.68
2018-06-23T23:16:29.107Z,14.60
2018-06-23T23:18:57.831Z,14.58
2018-06-23T23:21:26.585Z,14.56
2018-06-23T23:23:55.226Z,14.54
2018-06-23T23:26:23.916Z,14.51
2018-06-23T23:28:52.618Z,14.41
2018-06-23T23:31:21.349Z,14.41
2018-06-23T23:33:50.112Z,14.36
2018-06-23T23:36:18.779Z,14.35
2018-06-23T23:38:47.411Z,14.33
2018-06-23T23:41:16.134Z,14.26
2018-06-23T23:43:44.800Z,14.21
2018-06-23T23:46:13.524Z,14.87
2018-06-23T23:48:42.180Z,14.30
2018-06-23T23:51:10.871Z,14.20
2018-06-23T23:53:39.576Z,14.09
2018-06-23T23:56:08.618Z,14.04
2018-06-23T23:58:37.574Z,13.97
